Bucharest, Romania
Current Conditions -  °F | °C
As of 7:30 PM on Monday 24 Nov 2014 (Local Time) from LRBS Reporting Station
Clear Clear  
Wind Chill: 29°   Ceiling: Unl
Heat Index: 36°   Visibility: 6mi
Dew Point: 32°   Wind: 8mph
Humidity: 87%   Direction: 40°NE
Pressure: 30.42"   Gusts: NA
Location:  44.44°N, 26.1°E
Report Text: LRBS 241630Z 04007KT 360V070 CAVOK 02/M00 Q1030 NOSIG
Loading
Personal Weather Stations






























Interactive Weather Map New forecast layout! Learn more

10-Day Weather Forecast

Advertisements
Track Severe Weather on mobile